Aviation Digital Data Service (ADDS)

Output produced by METARs form (1125 UTC 25 August 2016)
found at http://aviationweather.gov/adds/metars/
 
KJST 251041Z 2511/2606 20008KT P6SM -SHRA BKN025 OVC050 
     FM251300 23008KT P6SM OVC015 
     FM251600 26008KT P6SM SCT030 
     FM252000 27008KT P6SM BKN050 
     FM260300 24005KT P6SM BKN100